Gargrave, United Kingdom
Current Conditions -  °F | °C
As of 10:50 AM on Tuesday 21 Oct 2014 (Local Time) from EGNM Reporting Station
Rain Showers Rain Showers  
Wind Chill: 35°   Ceiling: Unl
Heat Index: 45°   Visibility: 6mi
Dew Point: 39°   Wind: 28mph
Humidity: 81%   Direction: 280°W
Pressure: 29.47"   Gusts: 40mph
Location:  53.98°N, 2.1°W
Report Text: EGNM 210950Z 28024G35KT 9999 VCSH SCT012CB SCT024 07/04 Q0998
Loading
Personal Weather Stations






























Interactive Weather Map New forecast layout! Learn more

10-Day Weather Forecast

Advertisements
Track Severe Weather on mobile